sensor_id;sensor_type;location;lat;lon;timestamp;P1;durP1;ratioP1;P2;durP2;ratioP2
67861;SDS011;54665;51.462;6.698;2023-12-20T00:00:37;35.97;;;8.83;;
67861;SDS011;54665;51.462;6.698;2023-12-20T00:02:37;32.53;;;7.70;;
67861;SDS011;54665;51.462;6.698;2023-12-20T00:04:38;32.20;;;8.15;;
67861;SDS011;54665;51.462;6.698;2023-12-20T00:06:38;27.60;;;7.63;;
67861;SDS011;54665;51.462;6.698;2023-12-20T00:08:38;24.87;;;7.77;;
67861;SDS011;54665;51.462;6.698;2023-12-20T00:10:38;25.83;;;7.13;;
67861;SDS011;54665;51.462;6.698;2023-12-20T00:12:39;26.47;;;7.07;;
67861;SDS011;54665;51.462;6.698;2023-12-20T00:14:39;26.50;;;6.70;;
67861;SDS011;54665;51.462;6.698;2023-12-20T00:16:39;28.30;;;7.17;;
67861;SDS011;54665;51.462;6.698;2023-12-20T00:18:40;28.20;;;6.63;;
67861;SDS011;54665;51.462;6.698;2023-12-20T00:20:40;23.53;;;6.90;;
67861;SDS011;54665;51.462;6.698;2023-12-20T00:22:40;29.67;;;6.90;;
67861;SDS011;54665;51.462;6.698;2023-12-20T00:24:40;22.77;;;6.15;;
67861;SDS011;54665;51.462;6.698;2023-12-20T00:26:41;21.63;;;5.97;;
67861;SDS011;54665;51.462;6.698;2023-12-20T00:28:41;29.20;;;6.83;;
67861;SDS011;54665;51.462;6.698;2023-12-20T00:30:41;25.00;;;6.03;;
67861;SDS011;54665;51.462;6.698;2023-12-20T00:32:44;28.45;;;6.57;;
67861;SDS011;54665;51.462;6.698;2023-12-20T00:34:45;22.43;;;6.13;;
67861;SDS011;54665;51.462;6.698;2023-12-20T00:36:45;24.23;;;5.87;;
67861;SDS011;54665;51.462;6.698;2023-12-20T00:38:45;18.83;;;4.93;;
67861;SDS011;54665;51.462;6.698;2023-12-20T00:40:48;17.00;;;4.90;;
67861;SDS011;54665;51.462;6.698;2023-12-20T00:42:49;21.40;;;5.40;;
67861;SDS011;54665;51.462;6.698;2023-12-20T00:44:49;19.63;;;5.17;;
67861;SDS011;54665;51.462;6.698;2023-12-20T00:46:49;24.00;;;6.80;;
67861;SDS011;54665;51.462;6.698;2023-12-20T00:48:49;20.00;;;5.93;;
67861;SDS011;54665;51.462;6.698;2023-12-20T00:50:50;23.30;;;5.53;;
67861;SDS011;54665;51.462;6.698;2023-12-20T00:52:50;30.17;;;7.70;;
67861;SDS011;54665;51.462;6.698;2023-12-20T00:54:51;19.47;;;5.47;;
67861;SDS011;54665;51.462;6.698;2023-12-20T00:56:51;20.43;;;5.87;;
67861;SDS011;54665;51.462;6.698;2023-12-20T00:58:52;21.55;;;6.25;;
67861;SDS011;54665;51.462;6.698;2023-12-20T01:00:52;23.40;;;7.10;;
67861;SDS011;54665;51.462;6.698;2023-12-20T01:02:52;24.63;;;7.60;;
67861;SDS011;54665;51.462;6.698;2023-12-20T01:04:52;24.20;;;7.53;;
67861;SDS011;54665;51.462;6.698;2023-12-20T01:06:53;19.27;;;6.67;;
67861;SDS011;54665;51.462;6.698;2023-12-20T01:08:53;26.87;;;7.00;;
67861;SDS011;54665;51.462;6.698;2023-12-20T01:10:53;24.70;;;6.70;;
67861;SDS011;54665;51.462;6.698;2023-12-20T01:12:54;25.50;;;7.20;;
67861;SDS011;54665;51.462;6.698;2023-12-20T01:14:55;20.73;;;7.20;;
67861;SDS011;54665;51.462;6.698;2023-12-20T01:16:55;19.23;;;6.93;;
67861;SDS011;54665;51.462;6.698;2023-12-20T01:18:55;24.85;;;6.90;;
67861;SDS011;54665;51.462;6.698;2023-12-20T01:20:55;20.30;;;6.77;;
67861;SDS011;54665;51.462;6.698;2023-12-20T01:22:56;21.57;;;6.97;;
67861;SDS011;54665;51.462;6.698;2023-12-20T01:24:57;21.30;;;5.60;;
67861;SDS011;54665;51.462;6.698;2023-12-20T01:26:57;21.10;;;6.40;;
67861;SDS011;54665;51.462;6.698;2023-12-20T01:28:57;20.05;;;5.80;;
67861;SDS011;54665;51.462;6.698;2023-12-20T01:30:58;16.57;;;5.20;;
67861;SDS011;54665;51.462;6.698;2023-12-20T01:32:59;17.57;;;5.90;;
67861;SDS011;54665;51.462;6.698;2023-12-20T01:35:00;16.13;;;5.18;;
67861;SDS011;54665;51.462;6.698;2023-12-20T01:37:00;18.50;;;5.63;;
67861;SDS011;54665;51.462;6.698;2023-12-20T01:39:01;14.30;;;4.47;;
67861;SDS011;54665;51.462;6.698;2023-12-20T01:41:01;16.37;;;4.70;;
67861;SDS011;54665;51.462;6.698;2023-12-20T01:43:10;13.63;;;4.17;;
67861;SDS011;54665;51.462;6.698;2023-12-20T01:45:11;20.77;;;5.20;;
67861;SDS011;54665;51.462;6.698;2023-12-20T01:47:11;18.40;;;5.50;;
67861;SDS011;54665;51.462;6.698;2023-12-20T01:49:12;16.58;;;4.70;;
67861;SDS011;54665;51.462;6.698;2023-12-20T01:51:12;12.13;;;4.37;;
67861;SDS011;54665;51.462;6.698;2023-12-20T01:53:13;20.42;;;5.90;;
67861;SDS011;54665;51.462;6.698;2023-12-20T01:55:14;18.77;;;5.93;;
67861;SDS011;54665;51.462;6.698;2023-12-20T01:57:15;22.10;;;5.88;;
67861;SDS011;54665;51.462;6.698;2023-12-20T01:59:15;15.27;;;5.50;;
67861;SDS011;54665;51.462;6.698;2023-12-20T02:01:16;21.98;;;6.00;;
67861;SDS011;54665;51.462;6.698;2023-12-20T02:03:17;19.87;;;5.57;;
67861;SDS011;54665;51.462;6.698;2023-12-20T02:05:18;20.73;;;5.53;;
67861;SDS011;54665;51.462;6.698;2023-12-20T02:07:19;19.10;;;5.87;;
67861;SDS011;54665;51.462;6.698;2023-12-20T02:09:20;15.48;;;5.38;;
67861;SDS011;54665;51.462;6.698;2023-12-20T02:11:22;19.83;;;6.57;;
67861;SDS011;54665;51.462;6.698;2023-12-20T02:13:22;17.60;;;5.73;;
67861;SDS011;54665;51.462;6.698;2023-12-20T02:15:23;20.73;;;5.53;;
67861;SDS011;54665;51.462;6.698;2023-12-20T02:17:23;21.73;;;5.73;;
67861;SDS011;54665;51.462;6.698;2023-12-20T02:19:24;19.00;;;5.88;;
67861;SDS011;54665;51.462;6.698;2023-12-20T02:21:25;17.37;;;5.93;;
67861;SDS011;54665;51.462;6.698;2023-12-20T02:23:25;23.13;;;6.20;;
67861;SDS011;54665;51.462;6.698;2023-12-20T02:25:26;25.13;;;6.30;;
67861;SDS011;54665;51.462;6.698;2023-12-20T02:27:26;19.60;;;5.17;;
67861;SDS011;54665;51.462;6.698;2023-12-20T02:29:27;23.83;;;6.30;;
67861;SDS011;54665;51.462;6.698;2023-12-20T02:31:28;21.30;;;5.93;;
67861;SDS011;54665;51.462;6.698;2023-12-20T02:33:28;14.47;;;4.70;;
67861;SDS011;54665;51.462;6.698;2023-12-20T02:35:28;20.67;;;5.47;;
67861;SDS011;54665;51.462;6.698;2023-12-20T02:37:28;21.37;;;5.73;;
67861;SDS011;54665;51.462;6.698;2023-12-20T02:39:29;19.00;;;5.67;;
67861;SDS011;54665;51.462;6.698;2023-12-20T02:41:30;17.15;;;4.82;;
67861;SDS011;54665;51.462;6.698;2023-12-20T02:43:31;19.37;;;4.80;;
67861;SDS011;54665;51.462;6.698;2023-12-20T02:45:31;18.37;;;4.63;;
67861;SDS011;54665;51.462;6.698;2023-12-20T02:47:31;18.47;;;4.40;;
67861;SDS011;54665;51.462;6.698;2023-12-20T02:49:31;15.63;;;3.88;;
67861;SDS011;54665;51.462;6.698;2023-12-20T02:51:32;10.57;;;2.87;;
67861;SDS011;54665;51.462;6.698;2023-12-20T02:53:32;20.50;;;4.10;;
67861;SDS011;54665;51.462;6.698;2023-12-20T02:55:32;17.20;;;3.27;;
67861;SDS011;54665;51.462;6.698;2023-12-20T02:57:33;10.57;;;3.20;;
67861;SDS011;54665;51.462;6.698;2023-12-20T02:59:33;13.77;;;3.00;;
67861;SDS011;54665;51.462;6.698;2023-12-20T03:01:33;11.10;;;2.50;;
67861;SDS011;54665;51.462;6.698;2023-12-20T03:03:34;15.55;;;3.05;;
67861;SDS011;54665;51.462;6.698;2023-12-20T03:05:35;15.57;;;3.07;;
67861;SDS011;54665;51.462;6.698;2023-12-20T03:07:36;21.27;;;3.70;;
67861;SDS011;54665;51.462;6.698;2023-12-20T03:09:37;12.27;;;2.55;;
67861;SDS011;54665;51.462;6.698;2023-12-20T03:11:37;13.93;;;3.57;;
67861;SDS011;54665;51.462;6.698;2023-12-20T03:13:37;6.57;;;1.88;;
67861;SDS011;54665;51.462;6.698;2023-12-20T03:15:41;13.53;;;3.03;;
67861;SDS011;54665;51.462;6.698;2023-12-20T03:17:41;9.37;;;2.07;;
67861;SDS011;54665;51.462;6.698;2023-12-20T03:19:45;12.88;;;2.50;;
67861;SDS011;54665;51.462;6.698;2023-12-20T03:21:45;8.80;;;1.80;;
67861;SDS011;54665;51.462;6.698;2023-12-20T03:23:45;16.35;;;2.60;;
67861;SDS011;54665;51.462;6.698;2023-12-20T03:25:46;13.23;;;2.60;;
67861;SDS011;54665;51.462;6.698;2023-12-20T03:27:46;9.83;;;2.23;;
67861;SDS011;54665;51.462;6.698;2023-12-20T03:29:46;13.07;;;3.00;;
67861;SDS011;54665;51.462;6.698;2023-12-20T03:31:46;16.30;;;2.70;;
67861;SDS011;54665;51.462;6.698;2023-12-20T03:33:47;8.87;;;2.47;;
67861;SDS011;54665;51.462;6.698;2023-12-20T03:35:47;16.33;;;2.60;;
67861;SDS011;54665;51.462;6.698;2023-12-20T03:37:47;13.57;;;2.53;;
67861;SDS011;54665;51.462;6.698;2023-12-20T03:39:47;9.50;;;2.20;;
67861;SDS011;54665;51.462;6.698;2023-12-20T03:41:48;12.77;;;2.07;;
67861;SDS011;54665;51.462;6.698;2023-12-20T03:43:48;8.67;;;1.83;;
67861;SDS011;54665;51.462;6.698;2023-12-20T03:45:48;11.43;;;2.03;;
67861;SDS011;54665;51.462;6.698;2023-12-20T03:47:48;4.40;;;1.30;;
67861;SDS011;54665;51.462;6.698;2023-12-20T03:49:49;15.60;;;2.40;;
67861;SDS011;54665;51.462;6.698;2023-12-20T03:51:49;11.97;;;2.00;;
67861;SDS011;54665;51.462;6.698;2023-12-20T03:53:49;15.60;;;2.40;;
67861;SDS011;54665;51.462;6.698;2023-12-20T03:55:50;8.37;;;1.67;;
67861;SDS011;54665;51.462;6.698;2023-12-20T03:57:50;10.53;;;2.10;;
67861;SDS011;54665;51.462;6.698;2023-12-20T03:59:50;13.30;;;2.27;;
67861;SDS011;54665;51.462;6.698;2023-12-20T04:01:51;11.75;;;2.05;;
67861;SDS011;54665;51.462;6.698;2023-12-20T04:03:51;11.33;;;2.07;;
67861;SDS011;54665;51.462;6.698;2023-12-20T04:05:51;7.97;;;2.07;;
67861;SDS011;54665;51.462;6.698;2023-12-20T04:07:52;10.53;;;1.97;;
67861;SDS011;54665;51.462;6.698;2023-12-20T04:09:52;11.97;;;2.20;;
67861;SDS011;54665;51.462;6.698;2023-12-20T04:11:52;9.60;;;1.90;;
67861;SDS011;54665;51.462;6.698;2023-12-20T04:13:52;10.07;;;2.27;;
67861;SDS011;54665;51.462;6.698;2023-12-20T04:15:53;15.85;;;2.22;;
67861;SDS011;54665;51.462;6.698;2023-12-20T04:17:53;9.47;;;2.13;;
67861;SDS011;54665;51.462;6.698;2023-12-20T04:19:54;15.37;;;2.83;;
67861;SDS011;54665;51.462;6.698;2023-12-20T04:21:54;14.73;;;2.40;;
67861;SDS011;54665;51.462;6.698;2023-12-20T04:23:54;11.80;;;2.20;;
67861;SDS011;54665;51.462;6.698;2023-12-20T04:25:54;11.33;;;2.17;;
67861;SDS011;54665;51.462;6.698;2023-12-20T04:27:55;14.67;;;2.30;;
67861;SDS011;54665;51.462;6.698;2023-12-20T04:29:55;14.97;;;2.40;;
67861;SDS011;54665;51.462;6.698;2023-12-20T04:31:55;11.70;;;2.07;;
67861;SDS011;54665;51.462;6.698;2023-12-20T04:33:55;38.20;;;2.40;;
67861;SDS011;54665;51.462;6.698;2023-12-20T04:35:56;13.07;;;2.70;;
67861;SDS011;54665;51.462;6.698;2023-12-20T04:37:56;16.90;;;2.20;;
67861;SDS011;54665;51.462;6.698;2023-12-20T04:39:56;20.03;;;2.40;;
67861;SDS011;54665;51.462;6.698;2023-12-20T04:41:56;9.80;;;2.00;;
67861;SDS011;54665;51.462;6.698;2023-12-20T04:43:57;11.63;;;2.63;;
67861;SDS011;54665;51.462;6.698;2023-12-20T04:45:57;11.67;;;2.50;;
67861;SDS011;54665;51.462;6.698;2023-12-20T04:47:57;6.97;;;2.17;;
67861;SDS011;54665;51.462;6.698;2023-12-20T04:49:58;8.97;;;1.80;;
67861;SDS011;54665;51.462;6.698;2023-12-20T04:51:58;9.63;;;1.97;;
67861;SDS011;54665;51.462;6.698;2023-12-20T04:53:58;8.70;;;2.30;;
67861;SDS011;54665;51.462;6.698;2023-12-20T04:55:59;13.77;;;2.37;;
67861;SDS011;54665;51.462;6.698;2023-12-20T04:57:59;11.70;;;2.53;;
67861;SDS011;54665;51.462;6.698;2023-12-20T04:59:59;13.83;;;2.53;;
67861;SDS011;54665;51.462;6.698;2023-12-20T05:01:59;11.80;;;2.93;;
67861;SDS011;54665;51.462;6.698;2023-12-20T05:04:00;8.77;;;2.33;;
67861;SDS011;54665;51.462;6.698;2023-12-20T05:06:00;12.93;;;2.50;;
67861;SDS011;54665;51.462;6.698;2023-12-20T05:08:00;8.75;;;2.20;;
67861;SDS011;54665;51.462;6.698;2023-12-20T05:10:01;8.27;;;1.93;;
67861;SDS011;54665;51.462;6.698;2023-12-20T05:12:01;12.83;;;3.43;;
67861;SDS011;54665;51.462;6.698;2023-12-20T05:14:02;14.10;;;3.50;;
67861;SDS011;54665;51.462;6.698;2023-12-20T05:16:05;15.67;;;3.80;;
67861;SDS011;54665;51.462;6.698;2023-12-20T05:18:06;12.80;;;3.85;;
67861;SDS011;54665;51.462;6.698;2023-12-20T05:20:06;16.50;;;3.33;;
67861;SDS011;54665;51.462;6.698;2023-12-20T05:22:07;20.20;;;4.50;;
67861;SDS011;54665;51.462;6.698;2023-12-20T05:24:07;16.90;;;4.20;;
67861;SDS011;54665;51.462;6.698;2023-12-20T05:26:08;10.90;;;3.17;;
67861;SDS011;54665;51.462;6.698;2023-12-20T05:28:08;15.50;;;3.87;;
67861;SDS011;54665;51.462;6.698;2023-12-20T05:30:08;19.07;;;4.03;;
67861;SDS011;54665;51.462;6.698;2023-12-20T05:32:09;16.88;;;3.72;;
67861;SDS011;54665;51.462;6.698;2023-12-20T05:34:10;19.45;;;3.85;;
67861;SDS011;54665;51.462;6.698;2023-12-20T05:36:10;16.30;;;3.93;;
67861;SDS011;54665;51.462;6.698;2023-12-20T05:38:11;9.80;;;2.97;;
67861;SDS011;54665;51.462;6.698;2023-12-20T05:40:11;19.33;;;3.63;;
67861;SDS011;54665;51.462;6.698;2023-12-20T05:42:11;13.03;;;3.30;;
67861;SDS011;54665;51.462;6.698;2023-12-20T05:44:11;15.33;;;3.47;;
67861;SDS011;54665;51.462;6.698;2023-12-20T05:46:12;12.07;;;3.47;;
67861;SDS011;54665;51.462;6.698;2023-12-20T05:48:12;15.20;;;3.83;;
67861;SDS011;54665;51.462;6.698;2023-12-20T05:50:12;8.87;;;2.57;;
67861;SDS011;54665;51.462;6.698;2023-12-20T05:52:12;16.33;;;3.37;;
67861;SDS011;54665;51.462;6.698;2023-12-20T05:54:13;14.57;;;3.77;;
67861;SDS011;54665;51.462;6.698;2023-12-20T05:56:13;15.43;;;4.00;;
67861;SDS011;54665;51.462;6.698;2023-12-20T05:58:13;10.87;;;3.10;;
67861;SDS011;54665;51.462;6.698;2023-12-20T06:00:14;16.37;;;3.50;;
67861;SDS011;54665;51.462;6.698;2023-12-20T06:02:15;14.98;;;3.63;;
67861;SDS011;54665;51.462;6.698;2023-12-20T06:04:15;15.53;;;3.70;;
67861;SDS011;54665;51.462;6.698;2023-12-20T06:06:15;15.70;;;3.47;;
67861;SDS011;54665;51.462;6.698;2023-12-20T06:08:16;14.70;;;3.43;;
67861;SDS011;54665;51.462;6.698;2023-12-20T06:10:16;17.30;;;4.27;;
67861;SDS011;54665;51.462;6.698;2023-12-20T06:12:17;11.50;;;2.83;;
67861;SDS011;54665;51.462;6.698;2023-12-20T06:14:17;18.63;;;3.57;;
67861;SDS011;54665;51.462;6.698;2023-12-20T06:16:17;15.82;;;3.70;;
67861;SDS011;54665;51.462;6.698;2023-12-20T06:18:18;14.17;;;3.17;;
67861;SDS011;54665;51.462;6.698;2023-12-20T06:20:18;14.60;;;3.93;;
67861;SDS011;54665;51.462;6.698;2023-12-20T06:22:19;17.87;;;4.13;;
67861;SDS011;54665;51.462;6.698;2023-12-20T06:24:19;18.30;;;4.05;;
67861;SDS011;54665;51.462;6.698;2023-12-20T06:26:19;12.20;;;2.87;;
67861;SDS011;54665;51.462;6.698;2023-12-20T06:28:20;17.17;;;3.93;;
67861;SDS011;54665;51.462;6.698;2023-12-20T06:30:20;15.73;;;2.37;;
67861;SDS011;54665;51.462;6.698;2023-12-20T06:32:20;12.23;;;3.37;;
67861;SDS011;54665;51.462;6.698;2023-12-20T06:34:20;12.90;;;3.17;;
67861;SDS011;54665;51.462;6.698;2023-12-20T06:36:21;12.80;;;3.10;;
67861;SDS011;54665;51.462;6.698;2023-12-20T06:38:21;15.70;;;3.27;;
67861;SDS011;54665;51.462;6.698;2023-12-20T06:40:21;13.00;;;2.75;;
67861;SDS011;54665;51.462;6.698;2023-12-20T06:42:22;17.83;;;4.00;;
67861;SDS011;54665;51.462;6.698;2023-12-20T06:44:22;12.10;;;3.30;;
67861;SDS011;54665;51.462;6.698;2023-12-20T06:46:23;14.57;;;2.90;;
67861;SDS011;54665;51.462;6.698;2023-12-20T06:48:23;15.20;;;3.20;;
67861;SDS011;54665;51.462;6.698;2023-12-20T06:50:23;10.57;;;2.67;;
67861;SDS011;54665;51.462;6.698;2023-12-20T06:52:24;13.07;;;3.10;;
67861;SDS011;54665;51.462;6.698;2023-12-20T06:54:24;15.80;;;3.43;;
67861;SDS011;54665;51.462;6.698;2023-12-20T06:56:24;11.97;;;2.90;;
67861;SDS011;54665;51.462;6.698;2023-12-20T06:58:25;11.87;;;2.37;;
67861;SDS011;54665;51.462;6.698;2023-12-20T07:00:25;14.57;;;3.20;;
67861;SDS011;54665;51.462;6.698;2023-12-20T07:02:25;15.83;;;3.30;;
67861;SDS011;54665;51.462;6.698;2023-12-20T07:04:26;6.77;;;2.20;;
67861;SDS011;54665;51.462;6.698;2023-12-20T07:06:26;14.27;;;3.37;;
67861;SDS011;54665;51.462;6.698;2023-12-20T07:08:26;12.53;;;3.33;;
67861;SDS011;54665;51.462;6.698;2023-12-20T07:10:27;11.10;;;3.30;;
67861;SDS011;54665;51.462;6.698;2023-12-20T07:12:27;12.13;;;2.83;;
67861;SDS011;54665;51.462;6.698;2023-12-20T07:14:27;13.33;;;2.87;;
67861;SDS011;54665;51.462;6.698;2023-12-20T07:16:27;14.70;;;3.97;;
67861;SDS011;54665;51.462;6.698;2023-12-20T07:18:28;10.53;;;2.73;;
67861;SDS011;54665;51.462;6.698;2023-12-20T07:20:28;14.52;;;3.00;;
67861;SDS011;54665;51.462;6.698;2023-12-20T07:22:29;11.67;;;2.40;;
67861;SDS011;54665;51.462;6.698;2023-12-20T07:24:30;13.20;;;3.17;;
67861;SDS011;54665;51.462;6.698;2023-12-20T07:26:30;16.37;;;3.27;;
67861;SDS011;54665;51.462;6.698;2023-12-20T07:28:30;17.53;;;3.60;;
67861;SDS011;54665;51.462;6.698;2023-12-20T07:30:30;10.63;;;2.57;;
67861;SDS011;54665;51.462;6.698;2023-12-20T07:32:31;12.80;;;2.83;;
67861;SDS011;54665;51.462;6.698;2023-12-20T07:34:31;13.47;;;2.73;;
67861;SDS011;54665;51.462;6.698;2023-12-20T07:36:32;13.30;;;2.65;;
67861;SDS011;54665;51.462;6.698;2023-12-20T07:38:32;20.13;;;3.17;;
67861;SDS011;54665;51.462;6.698;2023-12-20T07:40:32;14.17;;;3.03;;
67861;SDS011;54665;51.462;6.698;2023-12-20T07:42:33;8.07;;;2.47;;
67861;SDS011;54665;51.462;6.698;2023-12-20T07:44:33;11.70;;;2.70;;
67861;SDS011;54665;51.462;6.698;2023-12-20T07:46:33;14.53;;;3.43;;
67861;SDS011;54665;51.462;6.698;2023-12-20T07:48:37;11.33;;;2.67;;
67861;SDS011;54665;51.462;6.698;2023-12-20T07:50:38;9.52;;;2.17;;
67861;SDS011;54665;51.462;6.698;2023-12-20T07:52:38;11.07;;;3.37;;
67861;SDS011;54665;51.462;6.698;2023-12-20T07:54:38;11.10;;;3.13;;
67861;SDS011;54665;51.462;6.698;2023-12-20T07:56:39;9.73;;;2.45;;
67861;SDS011;54665;51.462;6.698;2023-12-20T07:58:39;12.47;;;3.00;;
67861;SDS011;54665;51.462;6.698;2023-12-20T08:00:39;9.93;;;2.73;;
67861;SDS011;54665;51.462;6.698;2023-12-20T08:02:39;14.70;;;3.37;;
67861;SDS011;54665;51.462;6.698;2023-12-20T08:04:40;9.40;;;2.77;;
67861;SDS011;54665;51.462;6.698;2023-12-20T08:06:40;17.75;;;3.80;;
67861;SDS011;54665;51.462;6.698;2023-12-20T08:08:41;13.13;;;3.30;;
67861;SDS011;54665;51.462;6.698;2023-12-20T08:10:41;14.87;;;3.23;;
67861;SDS011;54665;51.462;6.698;2023-12-20T08:12:41;11.57;;;2.77;;
67861;SDS011;54665;51.462;6.698;2023-12-20T08:14:41;14.33;;;3.87;;
67861;SDS011;54665;51.462;6.698;2023-12-20T08:16:42;11.33;;;2.77;;
67861;SDS011;54665;51.462;6.698;2023-12-20T08:18:42;11.50;;;3.67;;
67861;SDS011;54665;51.462;6.698;2023-12-20T08:20:43;16.55;;;4.03;;
67861;SDS011;54665;51.462;6.698;2023-12-20T08:22:43;18.80;;;3.93;;
67861;SDS011;54665;51.462;6.698;2023-12-20T08:24:43;12.37;;;3.40;;
67861;SDS011;54665;51.462;6.698;2023-12-20T08:26:44;12.73;;;3.80;;
67861;SDS011;54665;51.462;6.698;2023-12-20T08:28:44;8.82;;;2.50;;
67861;SDS011;54665;51.462;6.698;2023-12-20T08:30:45;15.73;;;3.80;;
67861;SDS011;54665;51.462;6.698;2023-12-20T08:32:45;14.77;;;3.53;;
67861;SDS011;54665;51.462;6.698;2023-12-20T08:34:46;12.83;;;3.13;;
67861;SDS011;54665;51.462;6.698;2023-12-20T08:36:46;14.60;;;2.92;;
67861;SDS011;54665;51.462;6.698;2023-12-20T08:38:46;12.43;;;2.97;;
67861;SDS011;54665;51.462;6.698;2023-12-20T08:40:47;12.63;;;2.45;;
67861;SDS011;54665;51.462;6.698;2023-12-20T08:42:48;5.93;;;1.70;;
67861;SDS011;54665;51.462;6.698;2023-12-20T08:44:48;15.10;;;2.60;;
67861;SDS011;54665;51.462;6.698;2023-12-20T08:46:48;9.40;;;2.27;;
67861;SDS011;54665;51.462;6.698;2023-12-20T08:48:48;13.80;;;2.70;;
67861;SDS011;54665;51.462;6.698;2023-12-20T08:50:49;14.30;;;3.20;;
67861;SDS011;54665;51.462;6.698;2023-12-20T08:52:49;10.87;;;2.73;;
67861;SDS011;54665;51.462;6.698;2023-12-20T08:54:50;8.43;;;1.90;;
67861;SDS011;54665;51.462;6.698;2023-12-20T08:56:50;10.25;;;2.15;;
67861;SDS011;54665;51.462;6.698;2023-12-20T08:58:50;7.37;;;1.60;;
67861;SDS011;54665;51.462;6.698;2023-12-20T09:00:51;9.70;;;1.93;;
67861;SDS011;54665;51.462;6.698;2023-12-20T09:02:51;11.00;;;2.20;;
67861;SDS011;54665;51.462;6.698;2023-12-20T09:04:51;14.83;;;2.50;;
67861;SDS011;54665;51.462;6.698;2023-12-20T09:06:51;11.13;;;2.30;;
67861;SDS011;54665;51.462;6.698;2023-12-20T09:08:52;9.40;;;2.30;;
67861;SDS011;54665;51.462;6.698;2023-12-20T09:10:52;18.03;;;3.33;;
67861;SDS011;54665;51.462;6.698;2023-12-20T09:12:52;12.17;;;2.37;;
67861;SDS011;54665;51.462;6.698;2023-12-20T09:14:53;14.77;;;3.07;;
67861;SDS011;54665;51.462;6.698;2023-12-20T09:16:53;9.97;;;2.00;;
67861;SDS011;54665;51.462;6.698;2023-12-20T09:18:53;9.07;;;2.10;;
67861;SDS011;54665;51.462;6.698;2023-12-20T09:20:54;9.30;;;2.50;;
67861;SDS011;54665;51.462;6.698;2023-12-20T09:22:54;18.03;;;3.10;;
67861;SDS011;54665;51.462;6.698;2023-12-20T09:24:55;8.70;;;1.93;;
67861;SDS011;54665;51.462;6.698;2023-12-20T09:26:55;14.70;;;2.37;;
67861;SDS011;54665;51.462;6.698;2023-12-20T09:28:55;10.47;;;2.50;;
67861;SDS011;54665;51.462;6.698;2023-12-20T09:30:55;9.97;;;2.73;;
67861;SDS011;54665;51.462;6.698;2023-12-20T09:32:56;13.35;;;2.88;;
67861;SDS011;54665;51.462;6.698;2023-12-20T09:34:56;9.70;;;2.10;;
67861;SDS011;54665;51.462;6.698;2023-12-20T09:36:56;7.40;;;1.93;;
67861;SDS011;54665;51.462;6.698;2023-12-20T09:38:57;14.20;;;3.00;;
67861;SDS011;54665;51.462;6.698;2023-12-20T09:40:57;9.67;;;2.23;;
67861;SDS011;54665;51.462;6.698;2023-12-20T09:42:58;11.97;;;2.60;;
67861;SDS011;54665;51.462;6.698;2023-12-20T09:45:03;13.68;;;2.58;;
67861;SDS011;54665;51.462;6.698;2023-12-20T09:47:08;11.02;;;2.83;;
67861;SDS011;54665;51.462;6.698;2023-12-20T09:49:08;11.53;;;2.87;;
67861;SDS011;54665;51.462;6.698;2023-12-20T09:51:10;9.80;;;2.53;;
67861;SDS011;54665;51.462;6.698;2023-12-20T09:53:11;9.87;;;2.50;;
67861;SDS011;54665;51.462;6.698;2023-12-20T09:55:14;12.35;;;2.45;;
67861;SDS011;54665;51.462;6.698;2023-12-20T09:57:16;11.02;;;2.78;;
67861;SDS011;54665;51.462;6.698;2023-12-20T09:59:17;11.53;;;2.63;;
67861;SDS011;54665;51.462;6.698;2023-12-20T10:01:17;9.53;;;2.67;;
67861;SDS011;54665;51.462;6.698;2023-12-20T10:03:18;9.20;;;2.33;;
67861;SDS011;54665;51.462;6.698;2023-12-20T10:05:28;9.07;;;2.30;;
67861;SDS011;54665;51.462;6.698;2023-12-20T10:07:29;17.02;;;2.75;;
67861;SDS011;54665;51.462;6.698;2023-12-20T10:09:29;16.77;;;3.20;;
67861;SDS011;54665;51.462;6.698;2023-12-20T10:11:31;8.80;;;2.38;;
67861;SDS011;54665;51.462;6.698;2023-12-20T10:13:32;10.97;;;2.40;;
67861;SDS011;54665;51.462;6.698;2023-12-20T10:15:33;10.93;;;2.67;;
67861;SDS011;54665;51.462;6.698;2023-12-20T10:17:33;9.82;;;2.33;;
67861;SDS011;54665;51.462;6.698;2023-12-20T10:19:33;8.67;;;2.80;;
67861;SDS011;54665;51.462;6.698;2023-12-20T10:21:34;11.97;;;2.43;;
67861;SDS011;54665;51.462;6.698;2023-12-20T10:23:34;14.97;;;3.00;;
67861;SDS011;54665;51.462;6.698;2023-12-20T10:25:35;7.73;;;1.90;;
67861;SDS011;54665;51.462;6.698;2023-12-20T10:27:35;11.40;;;2.50;;
67861;SDS011;54665;51.462;6.698;2023-12-20T10:29:35;10.90;;;2.10;;
67861;SDS011;54665;51.462;6.698;2023-12-20T10:31:36;16.38;;;2.85;;
67861;SDS011;54665;51.462;6.698;2023-12-20T10:33:37;11.67;;;2.50;;
67861;SDS011;54665;51.462;6.698;2023-12-20T10:35:40;9.82;;;2.90;;
67861;SDS011;54665;51.462;6.698;2023-12-20T10:37:40;11.90;;;3.30;;
67861;SDS011;54665;51.462;6.698;2023-12-20T10:39:41;14.43;;;3.07;;
67861;SDS011;54665;51.462;6.698;2023-12-20T10:41:42;12.48;;;2.90;;
67861;SDS011;54665;51.462;6.698;2023-12-20T10:43:43;11.93;;;2.73;;
67861;SDS011;54665;51.462;6.698;2023-12-20T10:45:45;10.13;;;2.60;;
67861;SDS011;54665;51.462;6.698;2023-12-20T10:47:48;12.80;;;2.90;;
67861;SDS011;54665;51.462;6.698;2023-12-20T10:49:49;9.23;;;2.73;;
67861;SDS011;54665;51.462;6.698;2023-12-20T10:51:52;10.32;;;2.88;;
67861;SDS011;54665;51.462;6.698;2023-12-20T10:53:54;9.20;;;2.72;;
67861;SDS011;54665;51.462;6.698;2023-12-20T10:55:55;8.18;;;2.60;;
67861;SDS011;54665;51.462;6.698;2023-12-20T10:58:06;10.43;;;2.63;;
67861;SDS011;54665;51.462;6.698;2023-12-20T11:00:08;11.48;;;2.70;;
67861;SDS011;54665;51.462;6.698;2023-12-20T11:02:13;9.77;;;2.75;;
67861;SDS011;54665;51.462;6.698;2023-12-20T11:04:15;13.00;;;3.07;;
67861;SDS011;54665;51.462;6.698;2023-12-20T11:08:47;14.15;;;2.63;;
67861;SDS011;54665;51.462;6.698;2023-12-20T11:13:48;12.43;;;3.10;;
67861;SDS011;54665;51.462;6.698;2023-12-20T11:15:57;16.15;;;3.80;;
67861;SDS011;54665;51.462;6.698;2023-12-20T11:17:58;11.50;;;3.13;;
67861;SDS011;54665;51.462;6.698;2023-12-20T11:21:59;8.23;;;3.23;;
67861;SDS011;54665;51.462;6.698;2023-12-20T11:23:59;13.43;;;3.20;;
67861;SDS011;54665;51.462;6.698;2023-12-20T11:26:00;12.98;;;3.50;;
67861;SDS011;54665;51.462;6.698;2023-12-20T11:30:10;9.80;;;2.92;;
67861;SDS011;54665;51.462;6.698;2023-12-20T11:34:31;9.15;;;2.22;;
67861;SDS011;54665;51.462;6.698;2023-12-20T11:36:33;12.75;;;3.45;;
67861;SDS011;54665;51.462;6.698;2023-12-20T11:38:36;12.80;;;3.30;;
67861;SDS011;54665;51.462;6.698;2023-12-20T11:40:37;10.73;;;3.08;;
67861;SDS011;54665;51.462;6.698;2023-12-20T11:42:38;12.10;;;3.40;;
67861;SDS011;54665;51.462;6.698;2023-12-20T11:44:42;7.05;;;2.55;;
67861;SDS011;54665;51.462;6.698;2023-12-20T11:46:43;13.23;;;3.40;;
67861;SDS011;54665;51.462;6.698;2023-12-20T11:48:44;15.57;;;3.40;;
67861;SDS011;54665;51.462;6.698;2023-12-20T11:50:44;8.30;;;2.87;;
67861;SDS011;54665;51.462;6.698;2023-12-20T11:52:45;12.97;;;3.57;;
67861;SDS011;54665;51.462;6.698;2023-12-20T11:54:45;12.18;;;3.25;;
67861;SDS011;54665;51.462;6.698;2023-12-20T11:56:46;14.23;;;3.50;;
67861;SDS011;54665;51.462;6.698;2023-12-20T11:58:47;10.67;;;3.10;;
67861;SDS011;54665;51.462;6.698;2023-12-20T12:00:49;9.77;;;2.97;;
67861;SDS011;54665;51.462;6.698;2023-12-20T12:02:59;11.17;;;3.30;;
67861;SDS011;54665;51.462;6.698;2023-12-20T12:04:59;9.43;;;3.42;;
67861;SDS011;54665;51.462;6.698;2023-12-20T12:07:00;10.88;;;3.10;;
67861;SDS011;54665;51.462;6.698;2023-12-20T12:09:00;11.10;;;3.63;;